sensor_id;sensor_type;location;lat;lon;timestamp;P1;durP1;ratioP1;P2;durP2;ratioP2
17169;SDS011;8700;48.222;16.342;2023-12-20T00:00:41;48.33;;;43.20;;
17169;SDS011;8700;48.222;16.342;2023-12-20T00:04:04;52.23;;;44.50;;
17169;SDS011;8700;48.222;16.342;2023-12-20T00:07:26;51.17;;;43.27;;
17169;SDS011;8700;48.222;16.342;2023-12-20T00:10:47;51.37;;;44.10;;
17169;SDS011;8700;48.222;16.342;2023-12-20T00:14:08;49.00;;;43.67;;
17169;SDS011;8700;48.222;16.342;2023-12-20T00:17:30;52.97;;;44.30;;
17169;SDS011;8700;48.222;16.342;2023-12-20T00:20:52;49.73;;;44.13;;
17169;SDS011;8700;48.222;16.342;2023-12-20T00:24:13;48.77;;;41.97;;
17169;SDS011;8700;48.222;16.342;2023-12-20T00:27:35;52.83;;;43.13;;
17169;SDS011;8700;48.222;16.342;2023-12-20T00:30:57;48.97;;;42.77;;
17169;SDS011;8700;48.222;16.342;2023-12-20T00:34:18;49.67;;;43.63;;
17169;SDS011;8700;48.222;16.342;2023-12-20T00:37:41;47.97;;;41.93;;
17169;SDS011;8700;48.222;16.342;2023-12-20T00:41:04;48.53;;;43.20;;
17169;SDS011;8700;48.222;16.342;2023-12-20T00:44:25;43.03;;;36.17;;
17169;SDS011;8700;48.222;16.342;2023-12-20T00:47:46;40.63;;;35.43;;
17169;SDS011;8700;48.222;16.342;2023-12-20T00:51:08;39.63;;;35.37;;
17169;SDS011;8700;48.222;16.342;2023-12-20T00:54:30;39.83;;;35.03;;
17169;SDS011;8700;48.222;16.342;2023-12-20T00:57:51;41.30;;;33.27;;
17169;SDS011;8700;48.222;16.342;2023-12-20T01:01:13;43.97;;;39.17;;
17169;SDS011;8700;48.222;16.342;2023-12-20T01:04:35;44.10;;;38.83;;
17169;SDS011;8700;48.222;16.342;2023-12-20T01:07:57;45.60;;;38.57;;
17169;SDS011;8700;48.222;16.342;2023-12-20T01:11:19;40.80;;;35.27;;
17169;SDS011;8700;48.222;16.342;2023-12-20T01:14:41;39.37;;;35.10;;
17169;SDS011;8700;48.222;16.342;2023-12-20T01:18:03;41.67;;;37.27;;
17169;SDS011;8700;48.222;16.342;2023-12-20T01:21:24;41.10;;;34.60;;
17169;SDS011;8700;48.222;16.342;2023-12-20T01:24:45;43.23;;;38.63;;
17169;SDS011;8700;48.222;16.342;2023-12-20T01:28:08;42.97;;;34.20;;
17169;SDS011;8700;48.222;16.342;2023-12-20T01:31:29;43.00;;;36.57;;
17169;SDS011;8700;48.222;16.342;2023-12-20T01:34:50;41.77;;;37.30;;
17169;SDS011;8700;48.222;16.342;2023-12-20T01:38:11;40.47;;;34.60;;
17169;SDS011;8700;48.222;16.342;2023-12-20T01:41:33;39.20;;;35.03;;
17169;SDS011;8700;48.222;16.342;2023-12-20T01:44:55;42.53;;;35.90;;
17169;SDS011;8700;48.222;16.342;2023-12-20T01:48:16;37.87;;;32.07;;
17169;SDS011;8700;48.222;16.342;2023-12-20T01:51:38;39.53;;;33.90;;
17169;SDS011;8700;48.222;16.342;2023-12-20T01:54:59;38.83;;;32.97;;
17169;SDS011;8700;48.222;16.342;2023-12-20T01:58:23;37.53;;;33.03;;
17169;SDS011;8700;48.222;16.342;2023-12-20T02:01:47;36.63;;;32.13;;
17169;SDS011;8700;48.222;16.342;2023-12-20T02:05:09;39.03;;;33.90;;
17169;SDS011;8700;48.222;16.342;2023-12-20T02:08:31;37.20;;;31.57;;
17169;SDS011;8700;48.222;16.342;2023-12-20T02:11:53;35.93;;;31.17;;
17169;SDS011;8700;48.222;16.342;2023-12-20T02:15:15;38.07;;;33.90;;
17169;SDS011;8700;48.222;16.342;2023-12-20T02:18:37;34.83;;;30.83;;
17169;SDS011;8700;48.222;16.342;2023-12-20T02:22:07;41.10;;;34.23;;
17169;SDS011;8700;48.222;16.342;2023-12-20T02:25:29;33.17;;;29.40;;
17169;SDS011;8700;48.222;16.342;2023-12-20T02:28:50;39.50;;;35.23;;
17169;SDS011;8700;48.222;16.342;2023-12-20T02:32:12;37.43;;;33.07;;
17169;SDS011;8700;48.222;16.342;2023-12-20T02:35:33;37.93;;;33.63;;
17169;SDS011;8700;48.222;16.342;2023-12-20T02:38:56;38.90;;;34.37;;
17169;SDS011;8700;48.222;16.342;2023-12-20T02:42:17;39.27;;;33.07;;
17169;SDS011;8700;48.222;16.342;2023-12-20T02:45:38;35.53;;;31.80;;
17169;SDS011;8700;48.222;16.342;2023-12-20T02:48:59;39.33;;;32.57;;
17169;SDS011;8700;48.222;16.342;2023-12-20T02:52:20;36.57;;;32.27;;
17169;SDS011;8700;48.222;16.342;2023-12-20T02:55:43;34.20;;;29.90;;
17169;SDS011;8700;48.222;16.342;2023-12-20T02:59:04;36.97;;;30.73;;
17169;SDS011;8700;48.222;16.342;2023-12-20T03:02:28;35.63;;;31.77;;
17169;SDS011;8700;48.222;16.342;2023-12-20T03:05:49;35.23;;;30.03;;
17169;SDS011;8700;48.222;16.342;2023-12-20T03:09:10;32.33;;;29.03;;
17169;SDS011;8700;48.222;16.342;2023-12-20T03:12:33;37.50;;;32.37;;
17169;SDS011;8700;48.222;16.342;2023-12-20T03:15:54;34.10;;;30.60;;
17169;SDS011;8700;48.222;16.342;2023-12-20T03:19:15;32.53;;;27.90;;
17169;SDS011;8700;48.222;16.342;2023-12-20T03:22:37;34.40;;;30.83;;
17169;SDS011;8700;48.222;16.342;2023-12-20T03:25:58;30.70;;;27.47;;
17169;SDS011;8700;48.222;16.342;2023-12-20T03:29:21;32.63;;;28.27;;
17169;SDS011;8700;48.222;16.342;2023-12-20T03:32:42;29.47;;;23.23;;
17169;SDS011;8700;48.222;16.342;2023-12-20T03:36:04;27.13;;;23.20;;
17169;SDS011;8700;48.222;16.342;2023-12-20T03:39:26;35.80;;;31.73;;
17169;SDS011;8700;48.222;16.342;2023-12-20T03:42:47;28.30;;;25.33;;
17169;SDS011;8700;48.222;16.342;2023-12-20T03:46:10;32.53;;;28.47;;
17169;SDS011;8700;48.222;16.342;2023-12-20T03:49:31;34.93;;;31.20;;
17169;SDS011;8700;48.222;16.342;2023-12-20T03:52:52;30.87;;;27.47;;
17169;SDS011;8700;48.222;16.342;2023-12-20T03:56:13;25.60;;;22.77;;
17169;SDS011;8700;48.222;16.342;2023-12-20T03:59:34;27.63;;;22.57;;
17169;SDS011;8700;48.222;16.342;2023-12-20T04:02:58;25.47;;;20.20;;
17169;SDS011;8700;48.222;16.342;2023-12-20T04:06:19;19.37;;;17.57;;
17169;SDS011;8700;48.222;16.342;2023-12-20T04:09:40;21.83;;;19.70;;
17169;SDS011;8700;48.222;16.342;2023-12-20T04:13:01;27.97;;;25.03;;
17169;SDS011;8700;48.222;16.342;2023-12-20T04:16:23;31.43;;;28.07;;
17169;SDS011;8700;48.222;16.342;2023-12-20T04:19:45;37.23;;;33.23;;
17169;SDS011;8700;48.222;16.342;2023-12-20T04:23:06;39.63;;;32.90;;
17169;SDS011;8700;48.222;16.342;2023-12-20T04:26:28;38.40;;;34.23;;
17169;SDS011;8700;48.222;16.342;2023-12-20T04:29:49;37.57;;;32.10;;
17169;SDS011;8700;48.222;16.342;2023-12-20T04:33:11;42.10;;;34.37;;
17169;SDS011;8700;48.222;16.342;2023-12-20T04:36:33;40.23;;;34.60;;
17169;SDS011;8700;48.222;16.342;2023-12-20T04:39:55;38.87;;;34.87;;
17169;SDS011;8700;48.222;16.342;2023-12-20T04:43:16;40.43;;;34.47;;
17169;SDS011;8700;48.222;16.342;2023-12-20T04:46:38;39.10;;;34.70;;
17169;SDS011;8700;48.222;16.342;2023-12-20T04:49:59;34.93;;;30.40;;
17169;SDS011;8700;48.222;16.342;2023-12-20T04:53:24;18.00;;;16.03;;
17169;SDS011;8700;48.222;16.342;2023-12-20T04:56:45;14.33;;;12.93;;
17169;SDS011;8700;48.222;16.342;2023-12-20T05:00:07;7.85;;;7.25;;
17169;SDS011;8700;48.222;16.342;2023-12-20T05:03:28;7.33;;;6.70;;
17169;SDS011;8700;48.222;16.342;2023-12-20T05:06:50;6.83;;;6.23;;
17169;SDS011;8700;48.222;16.342;2023-12-20T05:10:12;6.93;;;6.37;;
17169;SDS011;8700;48.222;16.342;2023-12-20T05:13:34;6.80;;;6.20;;
17169;SDS011;8700;48.222;16.342;2023-12-20T05:16:55;6.90;;;6.30;;
17169;SDS011;8700;48.222;16.342;2023-12-20T05:20:16;6.53;;;6.03;;
17169;SDS011;8700;48.222;16.342;2023-12-20T05:23:37;6.93;;;6.33;;
17169;SDS011;8700;48.222;16.342;2023-12-20T05:27:00;7.40;;;6.80;;
17169;SDS011;8700;48.222;16.342;2023-12-20T05:30:21;7.47;;;6.77;;
17169;SDS011;8700;48.222;16.342;2023-12-20T05:33:43;7.10;;;6.47;;
17169;SDS011;8700;48.222;16.342;2023-12-20T05:37:04;6.83;;;6.23;;
17169;SDS011;8700;48.222;16.342;2023-12-20T05:40:25;7.43;;;6.73;;
17169;SDS011;8700;48.222;16.342;2023-12-20T05:43:49;6.87;;;6.20;;
17169;SDS011;8700;48.222;16.342;2023-12-20T05:47:10;8.53;;;7.87;;
17169;SDS011;8700;48.222;16.342;2023-12-20T05:50:46;7.67;;;6.97;;
17169;SDS011;8700;48.222;16.342;2023-12-20T05:54:08;7.97;;;7.37;;
17169;SDS011;8700;48.222;16.342;2023-12-20T05:57:30;10.33;;;9.07;;
17169;SDS011;8700;48.222;16.342;2023-12-20T06:00:53;8.47;;;7.67;;
17169;SDS011;8700;48.222;16.342;2023-12-20T06:04:14;10.40;;;9.40;;
17169;SDS011;8700;48.222;16.342;2023-12-20T06:07:35;8.90;;;8.10;;
17169;SDS011;8700;48.222;16.342;2023-12-20T06:10:56;7.97;;;6.97;;
17169;SDS011;8700;48.222;16.342;2023-12-20T06:14:18;8.97;;;8.23;;
17169;SDS011;8700;48.222;16.342;2023-12-20T06:17:40;12.03;;;8.17;;
17169;SDS011;8700;48.222;16.342;2023-12-20T06:21:02;8.83;;;7.33;;
17169;SDS011;8700;48.222;16.342;2023-12-20T06:24:23;7.47;;;6.77;;
17169;SDS011;8700;48.222;16.342;2023-12-20T06:27:47;7.83;;;7.23;;
17169;SDS011;8700;48.222;16.342;2023-12-20T06:31:08;7.77;;;7.17;;
17169;SDS011;8700;48.222;16.342;2023-12-20T06:34:31;7.27;;;6.67;;
17169;SDS011;8700;48.222;16.342;2023-12-20T06:37:52;9.03;;;7.47;;
17169;SDS011;8700;48.222;16.342;2023-12-20T06:41:13;8.60;;;7.90;;
17169;SDS011;8700;48.222;16.342;2023-12-20T06:44:36;9.13;;;6.40;;
17169;SDS011;8700;48.222;16.342;2023-12-20T06:47:58;8.63;;;7.67;;
17169;SDS011;8700;48.222;16.342;2023-12-20T06:51:20;7.90;;;6.83;;
17169;SDS011;8700;48.222;16.342;2023-12-20T06:54:45;6.93;;;6.23;;
17169;SDS011;8700;48.222;16.342;2023-12-20T06:58:06;8.43;;;6.73;;
17169;SDS011;8700;48.222;16.342;2023-12-20T07:01:28;6.93;;;6.27;;
17169;SDS011;8700;48.222;16.342;2023-12-20T07:04:49;6.70;;;6.10;;
17169;SDS011;8700;48.222;16.342;2023-12-20T07:08:12;6.63;;;6.03;;
17169;SDS011;8700;48.222;16.342;2023-12-20T07:11:35;7.00;;;6.37;;
17169;SDS011;8700;48.222;16.342;2023-12-20T07:14:56;7.27;;;6.40;;
17169;SDS011;8700;48.222;16.342;2023-12-20T07:18:17;7.40;;;6.80;;
17169;SDS011;8700;48.222;16.342;2023-12-20T07:21:38;8.10;;;6.97;;
17169;SDS011;8700;48.222;16.342;2023-12-20T07:25:01;8.00;;;7.30;;
17169;SDS011;8700;48.222;16.342;2023-12-20T07:28:23;10.90;;;7.93;;
17169;SDS011;8700;48.222;16.342;2023-12-20T07:31:44;7.63;;;7.03;;
17169;SDS011;8700;48.222;16.342;2023-12-20T07:35:06;7.37;;;6.67;;
17169;SDS011;8700;48.222;16.342;2023-12-20T07:38:27;7.63;;;6.93;;
17169;SDS011;8700;48.222;16.342;2023-12-20T07:41:50;7.83;;;7.20;;
17169;SDS011;8700;48.222;16.342;2023-12-20T07:45:11;6.77;;;6.17;;
17169;SDS011;8700;48.222;16.342;2023-12-20T07:48:33;9.73;;;8.87;;
17169;SDS011;8700;48.222;16.342;2023-12-20T07:51:55;7.57;;;7.07;;
17169;SDS011;8700;48.222;16.342;2023-12-20T07:55:16;8.50;;;7.80;;
17169;SDS011;8700;48.222;16.342;2023-12-20T07:58:38;9.77;;;7.13;;
17169;SDS011;8700;48.222;16.342;2023-12-20T08:02:00;10.53;;;9.43;;
17169;SDS011;8700;48.222;16.342;2023-12-20T08:05:21;9.33;;;8.43;;
17169;SDS011;8700;48.222;16.342;2023-12-20T08:08:42;9.10;;;7.07;;
17169;SDS011;8700;48.222;16.342;2023-12-20T08:12:03;8.63;;;7.93;;
17169;SDS011;8700;48.222;16.342;2023-12-20T08:15:26;7.23;;;6.57;;
17169;SDS011;8700;48.222;16.342;2023-12-20T08:18:48;7.23;;;6.53;;
17169;SDS011;8700;48.222;16.342;2023-12-20T08:22:09;8.17;;;7.47;;
17169;SDS011;8700;48.222;16.342;2023-12-20T08:25:30;7.87;;;7.00;;
17169;SDS011;8700;48.222;16.342;2023-12-20T08:28:52;8.23;;;7.50;;
17169;SDS011;8700;48.222;16.342;2023-12-20T08:32:14;7.93;;;6.87;;
17169;SDS011;8700;48.222;16.342;2023-12-20T08:35:36;8.17;;;7.50;;
17169;SDS011;8700;48.222;16.342;2023-12-20T08:38:57;7.83;;;6.80;;
17169;SDS011;8700;48.222;16.342;2023-12-20T08:42:20;7.53;;;6.93;;
17169;SDS011;8700;48.222;16.342;2023-12-20T08:45:41;7.77;;;7.17;;
17169;SDS011;8700;48.222;16.342;2023-12-20T08:49:04;8.03;;;7.17;;
17169;SDS011;8700;48.222;16.342;2023-12-20T08:52:25;7.40;;;6.80;;
17169;SDS011;8700;48.222;16.342;2023-12-20T08:55:48;8.70;;;8.00;;
17169;SDS011;8700;48.222;16.342;2023-12-20T08:59:09;9.80;;;7.27;;
17169;SDS011;8700;48.222;16.342;2023-12-20T09:02:31;7.30;;;6.80;;
17169;SDS011;8700;48.222;16.342;2023-12-20T09:05:54;7.60;;;6.83;;
17169;SDS011;8700;48.222;16.342;2023-12-20T09:09:15;7.57;;;6.43;;
17169;SDS011;8700;48.222;16.342;2023-12-20T09:12:36;8.60;;;7.80;;
17169;SDS011;8700;48.222;16.342;2023-12-20T09:16:00;8.07;;;7.37;;
17169;SDS011;8700;48.222;16.342;2023-12-20T09:19:21;7.40;;;6.63;;
17169;SDS011;8700;48.222;16.342;2023-12-20T09:22:44;6.77;;;6.27;;
17169;SDS011;8700;48.222;16.342;2023-12-20T09:26:05;6.47;;;5.97;;
17169;SDS011;8700;48.222;16.342;2023-12-20T09:29:27;5.03;;;4.73;;
17169;SDS011;8700;48.222;16.342;2023-12-20T09:32:48;5.30;;;4.57;;
17169;SDS011;8700;48.222;16.342;2023-12-20T09:36:09;6.37;;;5.47;;
17169;SDS011;8700;48.222;16.342;2023-12-20T09:39:32;5.43;;;5.03;;
17169;SDS011;8700;48.222;16.342;2023-12-20T09:42:55;4.70;;;4.40;;
17169;SDS011;8700;48.222;16.342;2023-12-20T09:46:18;4.97;;;4.57;;
17169;SDS011;8700;48.222;16.342;2023-12-20T09:49:44;5.20;;;4.80;;
17169;SDS011;8700;48.222;16.342;2023-12-20T09:53:07;5.33;;;4.97;;
17169;SDS011;8700;48.222;16.342;2023-12-20T09:56:31;5.83;;;5.43;;
17169;SDS011;8700;48.222;16.342;2023-12-20T09:59:53;4.87;;;4.57;;
17169;SDS011;8700;48.222;16.342;2023-12-20T10:03:14;8.53;;;7.70;;
17169;SDS011;8700;48.222;16.342;2023-12-20T10:06:36;5.53;;;5.13;;
17169;SDS011;8700;48.222;16.342;2023-12-20T10:09:57;4.93;;;4.63;;
17169;SDS011;8700;48.222;16.342;2023-12-20T10:13:20;5.73;;;5.20;;
17169;SDS011;8700;48.222;16.342;2023-12-20T10:16:41;6.73;;;6.17;;
17169;SDS011;8700;48.222;16.342;2023-12-20T10:20:03;5.83;;;5.40;;
17169;SDS011;8700;48.222;16.342;2023-12-20T10:23:29;6.03;;;5.53;;
17169;SDS011;8700;48.222;16.342;2023-12-20T10:27:00;8.10;;;6.47;;
17169;SDS011;8700;48.222;16.342;2023-12-20T10:30:25;7.77;;;7.07;;
17169;SDS011;8700;48.222;16.342;2023-12-20T10:33:48;6.00;;;5.60;;
17169;SDS011;8700;48.222;16.342;2023-12-20T10:37:09;5.80;;;5.40;;
17169;SDS011;8700;48.222;16.342;2023-12-20T10:40:31;6.80;;;6.40;;
17169;SDS011;8700;48.222;16.342;2023-12-20T10:43:56;5.80;;;5.30;;
17169;SDS011;8700;48.222;16.342;2023-12-20T10:47:20;7.33;;;6.80;;
17169;SDS011;8700;48.222;16.342;2023-12-20T10:50:43;5.93;;;5.53;;
17169;SDS011;8700;48.222;16.342;2023-12-20T10:54:05;6.50;;;6.07;;
17169;SDS011;8700;48.222;16.342;2023-12-20T10:57:28;7.47;;;6.97;;
17169;SDS011;8700;48.222;16.342;2023-12-20T11:00:50;6.80;;;6.30;;
17169;SDS011;8700;48.222;16.342;2023-12-20T11:04:18;5.80;;;5.50;;
17169;SDS011;8700;48.222;16.342;2023-12-20T11:07:45;6.30;;;5.90;;
17169;SDS011;8700;48.222;16.342;2023-12-20T11:11:10;7.50;;;6.90;;
17169;SDS011;8700;48.222;16.342;2023-12-20T11:14:40;7.50;;;6.80;;
17169;SDS011;8700;48.222;16.342;2023-12-20T11:18:06;7.00;;;6.47;;
17169;SDS011;8700;48.222;16.342;2023-12-20T11:21:28;6.70;;;6.30;;
17169;SDS011;8700;48.222;16.342;2023-12-20T11:24:51;4.83;;;4.50;;
17169;SDS011;8700;48.222;16.342;2023-12-20T11:28:13;5.40;;;5.10;;
17169;SDS011;8700;48.222;16.342;2023-12-20T11:31:39;5.67;;;5.23;;
17169;SDS011;8700;48.222;16.342;2023-12-20T11:35:01;5.97;;;5.57;;
17169;SDS011;8700;48.222;16.342;2023-12-20T11:38:39;4.87;;;4.57;;
17169;SDS011;8700;48.222;16.342;2023-12-20T11:42:14;5.80;;;5.30;;
17169;SDS011;8700;48.222;16.342;2023-12-20T11:45:36;5.33;;;4.93;;
17169;SDS011;8700;48.222;16.342;2023-12-20T11:48:57;5.83;;;5.37;;
17169;SDS011;8700;48.222;16.342;2023-12-20T11:52:18;8.77;;;6.03;;
17169;SDS011;8700;48.222;16.342;2023-12-20T11:55:41;5.57;;;5.17;;
17169;SDS011;8700;48.222;16.342;2023-12-20T11:59:02;5.33;;;5.03;;
17169;SDS011;8700;48.222;16.342;2023-12-20T12:02:24;5.00;;;4.70;;
17169;SDS011;8700;48.222;16.342;2023-12-20T12:05:47;6.77;;;6.27;;
17169;SDS011;8700;48.222;16.342;2023-12-20T12:09:08;4.57;;;4.27;;
17169;SDS011;8700;48.222;16.342;2023-12-20T12:12:31;4.30;;;4.10;;
17169;SDS011;8700;48.222;16.342;2023-12-20T12:15:52;3.87;;;3.67;;
17169;SDS011;8700;48.222;16.342;2023-12-20T12:19:20;4.50;;;4.17;;
17169;SDS011;8700;48.222;16.342;2023-12-20T12:22:41;3.90;;;3.70;;
17169;SDS011;8700;48.222;16.342;2023-12-20T12:26:03;5.40;;;5.10;;
17169;SDS011;8700;48.222;16.342;2023-12-20T12:29:27;4.23;;;4.03;;
17169;SDS011;8700;48.222;16.342;2023-12-20T12:32:48;5.63;;;5.23;;
17169;SDS011;8700;48.222;16.342;2023-12-20T12:36:11;4.63;;;4.33;;
17169;SDS011;8700;48.222;16.342;2023-12-20T12:39:35;4.47;;;4.23;;
17169;SDS011;8700;48.222;16.342;2023-12-20T12:42:56;4.53;;;4.20;;
17169;SDS011;8700;48.222;16.342;2023-12-20T12:46:19;5.00;;;4.70;;
17169;SDS011;8700;48.222;16.342;2023-12-20T12:49:41;4.17;;;3.90;;
17169;SDS011;8700;48.222;16.342;2023-12-20T12:53:02;4.77;;;4.47;;
17169;SDS011;8700;48.222;16.342;2023-12-20T12:56:24;5.47;;;5.00;;
17169;SDS011;8700;48.222;16.342;2023-12-20T12:59:45;5.83;;;5.53;;
17169;SDS011;8700;48.222;16.342;2023-12-20T13:03:08;4.73;;;4.43;;
17169;SDS011;8700;48.222;16.342;2023-12-20T13:06:29;4.50;;;4.10;;
17169;SDS011;8700;48.222;16.342;2023-12-20T13:09:51;4.87;;;4.57;;
17169;SDS011;8700;48.222;16.342;2023-12-20T13:13:12;4.30;;;4.00;;
17169;SDS011;8700;48.222;16.342;2023-12-20T13:16:33;4.30;;;3.90;;
17169;SDS011;8700;48.222;16.342;2023-12-20T13:19:56;5.37;;;5.03;;
17169;SDS011;8700;48.222;16.342;2023-12-20T13:23:19;4.90;;;4.40;;
17169;SDS011;8700;48.222;16.342;2023-12-20T13:26:40;5.03;;;4.70;;
17169;SDS011;8700;48.222;16.342;2023-12-20T13:30:01;5.03;;;4.77;;
17169;SDS011;8700;48.222;16.342;2023-12-20T13:33:23;3.83;;;3.63;;
17169;SDS011;8700;48.222;16.342;2023-12-20T13:36:46;5.00;;;4.63;;
17169;SDS011;8700;48.222;16.342;2023-12-20T13:40:09;5.10;;;4.70;;
17169;SDS011;8700;48.222;16.342;2023-12-20T13:43:31;4.10;;;3.90;;
17169;SDS011;8700;48.222;16.342;2023-12-20T13:46:53;4.00;;;3.80;;
17169;SDS011;8700;48.222;16.342;2023-12-20T13:50:15;5.97;;;3.77;;
17169;SDS011;8700;48.222;16.342;2023-12-20T13:53:37;4.17;;;3.97;;
17169;SDS011;8700;48.222;16.342;2023-12-20T13:56:59;4.67;;;4.37;;
17169;SDS011;8700;48.222;16.342;2023-12-20T14:00:20;4.57;;;4.30;;
17169;SDS011;8700;48.222;16.342;2023-12-20T14:03:41;4.90;;;4.60;;
17169;SDS011;8700;48.222;16.342;2023-12-20T14:07:02;5.07;;;4.77;;
17169;SDS011;8700;48.222;16.342;2023-12-20T14:10:25;4.53;;;4.20;;
17169;SDS011;8700;48.222;16.342;2023-12-20T14:13:46;5.87;;;5.00;;
17169;SDS011;8700;48.222;16.342;2023-12-20T14:17:07;4.87;;;4.57;;
17169;SDS011;8700;48.222;16.342;2023-12-20T14:20:29;5.97;;;5.47;;
17169;SDS011;8700;48.222;16.342;2023-12-20T14:23:51;4.63;;;4.33;;
17169;SDS011;8700;48.222;16.342;2023-12-20T14:27:13;8.17;;;4.87;;
17169;SDS011;8700;48.222;16.342;2023-12-20T14:30:34;4.77;;;4.30;;
17169;SDS011;8700;48.222;16.342;2023-12-20T14:33:57;4.17;;;3.97;;
17169;SDS011;8700;48.222;16.342;2023-12-20T14:37:18;4.23;;;3.93;;
17169;SDS011;8700;48.222;16.342;2023-12-20T14:40:40;3.90;;;3.70;;
17169;SDS011;8700;48.222;16.342;2023-12-20T14:44:02;4.50;;;4.30;;
17169;SDS011;8700;48.222;16.342;2023-12-20T14:47:24;4.27;;;3.93;;
17169;SDS011;8700;48.222;16.342;2023-12-20T14:50:45;5.70;;;5.10;;
17169;SDS011;8700;48.222;16.342;2023-12-20T14:54:07;4.57;;;4.37;;
17169;SDS011;8700;48.222;16.342;2023-12-20T14:57:29;4.93;;;4.53;;
17169;SDS011;8700;48.222;16.342;2023-12-20T15:00:52;4.90;;;4.60;;
17169;SDS011;8700;48.222;16.342;2023-12-20T15:04:13;5.03;;;4.63;;
17169;SDS011;8700;48.222;16.342;2023-12-20T15:07:34;5.23;;;3.50;;
17169;SDS011;8700;48.222;16.342;2023-12-20T15:10:56;4.43;;;4.13;;
17169;SDS011;8700;48.222;16.342;2023-12-20T15:14:18;4.73;;;4.40;;
17169;SDS011;8700;48.222;16.342;2023-12-20T15:17:41;4.00;;;3.80;;
17169;SDS011;8700;48.222;16.342;2023-12-20T15:21:02;3.90;;;3.70;;
17169;SDS011;8700;48.222;16.342;2023-12-20T15:24:25;5.80;;;3.93;;
17169;SDS011;8700;48.222;16.342;2023-12-20T15:27:48;4.47;;;4.07;;
17169;SDS011;8700;48.222;16.342;2023-12-20T15:31:12;4.47;;;4.07;;
17169;SDS011;8700;48.222;16.342;2023-12-20T15:34:34;4.30;;;4.00;;
17169;SDS011;8700;48.222;16.342;2023-12-20T15:37:56;3.83;;;3.63;;
17169;SDS011;8700;48.222;16.342;2023-12-20T15:41:17;3.53;;;3.33;;
17169;SDS011;8700;48.222;16.342;2023-12-20T15:44:39;3.73;;;3.53;;
17169;SDS011;8700;48.222;16.342;2023-12-20T15:48:01;5.57;;;5.17;;
17169;SDS011;8700;48.222;16.342;2023-12-20T15:51:24;5.93;;;5.33;;
17169;SDS011;8700;48.222;16.342;2023-12-20T15:54:46;5.80;;;5.50;;
17169;SDS011;8700;48.222;16.342;2023-12-20T15:58:07;5.20;;;4.90;;
17169;SDS011;8700;48.222;16.342;2023-12-20T16:01:29;4.70;;;4.40;;
17169;SDS011;8700;48.222;16.342;2023-12-20T16:04:50;5.23;;;4.90;;
17169;SDS011;8700;48.222;16.342;2023-12-20T16:08:13;5.17;;;4.87;;
17169;SDS011;8700;48.222;16.342;2023-12-20T16:11:34;5.47;;;5.17;;
17169;SDS011;8700;48.222;16.342;2023-12-20T16:14:56;8.23;;;5.80;;
17169;SDS011;8700;48.222;16.342;2023-12-20T16:18:17;5.17;;;4.83;;
17169;SDS011;8700;48.222;16.342;2023-12-20T16:21:38;4.93;;;4.63;;
17169;SDS011;8700;48.222;16.342;2023-12-20T16:25:01;5.60;;;5.30;;
17169;SDS011;8700;48.222;16.342;2023-12-20T16:28:22;5.00;;;4.70;;
17169;SDS011;8700;48.222;16.342;2023-12-20T16:31:44;5.97;;;5.57;;
17169;SDS011;8700;48.222;16.342;2023-12-20T16:35:05;6.83;;;6.20;;
17169;SDS011;8700;48.222;16.342;2023-12-20T16:38:26;4.93;;;4.63;;
17169;SDS011;8700;48.222;16.342;2023-12-20T16:41:49;4.77;;;4.47;;
17169;SDS011;8700;48.222;16.342;2023-12-20T16:45:10;5.90;;;5.50;;
17169;SDS011;8700;48.222;16.342;2023-12-20T16:48:31;8.97;;;8.27;;
17169;SDS011;8700;48.222;16.342;2023-12-20T16:51:53;5.40;;;5.00;;
17169;SDS011;8700;48.222;16.342;2023-12-20T16:55:14;7.40;;;6.80;;
17169;SDS011;8700;48.222;16.342;2023-12-20T16:58:36;6.27;;;5.77;;
17169;SDS011;8700;48.222;16.342;2023-12-20T17:01:57;5.23;;;4.83;;
17169;SDS011;8700;48.222;16.342;2023-12-20T17:05:21;6.17;;;5.67;;
17169;SDS011;8700;48.222;16.342;2023-12-20T17:08:42;5.40;;;5.00;;
17169;SDS011;8700;48.222;16.342;2023-12-20T17:12:04;5.47;;;4.93;;
17169;SDS011;8700;48.222;16.342;2023-12-20T17:15:28;5.60;;;5.10;;
17169;SDS011;8700;48.222;16.342;2023-12-20T17:18:49;5.67;;;5.37;;
17169;SDS011;8700;48.222;16.342;2023-12-20T17:22:10;5.40;;;4.83;;
17169;SDS011;8700;48.222;16.342;2023-12-20T17:25:32;5.43;;;3.97;;
17169;SDS011;8700;48.222;16.342;2023-12-20T17:28:57;5.97;;;3.63;;
17169;SDS011;8700;48.222;16.342;2023-12-20T17:32:20;4.83;;;4.43;;
17169;SDS011;8700;48.222;16.342;2023-12-20T17:35:41;5.80;;;5.10;;
17169;SDS011;8700;48.222;16.342;2023-12-20T17:39:03;4.60;;;4.20;;
17169;SDS011;8700;48.222;16.342;2023-12-20T17:42:24;4.43;;;4.13;;
17169;SDS011;8700;48.222;16.342;2023-12-20T17:45:45;4.23;;;3.83;;
17169;SDS011;8700;48.222;16.342;2023-12-20T17:49:08;4.93;;;4.57;;
17169;SDS011;8700;48.222;16.342;2023-12-20T17:52:29;4.60;;;4.23;;
17169;SDS011;8700;48.222;16.342;2023-12-20T17:55:50;4.97;;;4.57;;
17169;SDS011;8700;48.222;16.342;2023-12-20T17:59:11;5.13;;;4.77;;
17169;SDS011;8700;48.222;16.342;2023-12-20T18:02:32;4.93;;;4.53;;
17169;SDS011;8700;48.222;16.342;2023-12-20T18:05:55;5.23;;;4.83;;
17169;SDS011;8700;48.222;16.342;2023-12-20T18:09:16;5.10;;;4.40;;
17169;SDS011;8700;48.222;16.342;2023-12-20T18:12:38;5.10;;;4.70;;
17169;SDS011;8700;48.222;16.342;2023-12-20T18:15:59;6.10;;;5.60;;
17169;SDS011;8700;48.222;16.342;2023-12-20T18:19:20;4.50;;;4.10;;
17169;SDS011;8700;48.222;16.342;2023-12-20T18:22:42;6.87;;;4.87;;
17169;SDS011;8700;48.222;16.342;2023-12-20T18:26:03;4.53;;;4.20;;
17169;SDS011;8700;48.222;16.342;2023-12-20T18:29:25;4.50;;;4.10;;
17169;SDS011;8700;48.222;16.342;2023-12-20T18:32:46;5.43;;;5.03;;
17169;SDS011;8700;48.222;16.342;2023-12-20T18:36:07;5.40;;;5.00;;
17169;SDS011;8700;48.222;16.342;2023-12-20T18:39:30;5.30;;;4.80;;
17169;SDS011;8700;48.222;16.342;2023-12-20T18:42:51;5.77;;;5.27;;
17169;SDS011;8700;48.222;16.342;2023-12-20T18:46:12;5.37;;;4.90;;
17169;SDS011;8700;48.222;16.342;2023-12-20T18:49:34;5.07;;;4.00;;
17169;SDS011;8700;48.222;16.342;2023-12-20T18:52:55;5.23;;;4.83;;
17169;SDS011;8700;48.222;16.342;2023-12-20T18:56:17;6.13;;;5.50;;
17169;SDS011;8700;48.222;16.342;2023-12-20T18:59:38;4.27;;;3.90;;
17169;SDS011;8700;48.222;16.342;2023-12-20T19:02:59;5.00;;;4.60;;
17169;SDS011;8700;48.222;16.342;2023-12-20T19:06:21;6.70;;;6.03;;
17169;SDS011;8700;48.222;16.342;2023-12-20T19:09:42;4.70;;;4.30;;
17169;SDS011;8700;48.222;16.342;2023-12-20T19:13:05;6.17;;;4.30;;
17169;SDS011;8700;48.222;16.342;2023-12-20T19:16:26;5.27;;;4.80;;
17169;SDS011;8700;48.222;16.342;2023-12-20T19:19:47;4.33;;;4.07;;
17169;SDS011;8700;48.222;16.342;2023-12-20T19:23:09;5.90;;;5.40;;
17169;SDS011;8700;48.222;16.342;2023-12-20T19:26:30;6.00;;;5.47;;
17169;SDS011;8700;48.222;16.342;2023-12-20T19:29:52;4.90;;;4.40;;
17169;SDS011;8700;48.222;16.342;2023-12-20T19:33:16;4.93;;;4.53;;
17169;SDS011;8700;48.222;16.342;2023-12-20T19:36:37;5.40;;;4.97;;
17169;SDS011;8700;48.222;16.342;2023-12-20T19:39:59;5.90;;;4.73;;
17169;SDS011;8700;48.222;16.342;2023-12-20T19:43:20;4.40;;;4.00;;
17169;SDS011;8700;48.222;16.342;2023-12-20T19:46:42;4.70;;;4.40;;
17169;SDS011;8700;48.222;16.342;2023-12-20T19:50:07;5.57;;;5.10;;
17169;SDS011;8700;48.222;16.342;2023-12-20T19:53:29;5.27;;;4.73;;
17169;SDS011;8700;48.222;16.342;2023-12-20T19:56:50;6.17;;;5.27;;
17169;SDS011;8700;48.222;16.342;2023-12-20T20:00:12;5.40;;;4.97;;
17169;SDS011;8700;48.222;16.342;2023-12-20T20:03:35;6.50;;;5.07;;
17169;SDS011;8700;48.222;16.342;2023-12-20T20:06:56;5.30;;;4.90;;